createdAt,value
2023-03-19T00:00:44.108Z,7.49
2023-03-19T00:01:48.412Z,7.46
2023-03-19T00:02:52.741Z,7.44
2023-03-19T00:03:56.715Z,7.41
2023-03-19T00:05:00.922Z,7.39
2023-03-19T00:06:05.159Z,7.35
2023-03-19T00:07:09.335Z,7.32
2023-03-19T00:08:13.708Z,7.29
2023-03-19T00:09:17.839Z,7.26
2023-03-19T00:10:22.076Z,7.24
2023-03-19T00:11:26.324Z,7.21
2023-03-19T00:12:30.534Z,7.20
2023-03-19T00:13:34.715Z,7.20
2023-03-19T00:14:38.926Z,7.19
2023-03-19T00:15:43.092Z,7.18
2023-03-19T00:16:47.321Z,7.16
2023-03-19T00:17:51.514Z,7.13
2023-03-19T00:18:55.817Z,7.09
2023-03-19T00:19:59.975Z,7.04
2023-03-19T00:21:04.258Z,7.01
2023-03-19T00:22:08.529Z,6.98
2023-03-19T00:23:12.780Z,6.96
2023-03-19T00:24:16.932Z,6.94
2023-03-19T00:25:21.109Z,6.92
2023-03-19T00:26:25.328Z,6.91
2023-03-19T00:27:29.567Z,6.89
2023-03-19T00:28:33.845Z,6.89
2023-03-19T00:29:37.997Z,6.89
2023-03-19T00:30:42.220Z,6.90
2023-03-19T00:31:46.423Z,6.90
2023-03-19T00:32:50.633Z,6.92
2023-03-19T00:33:54.834Z,6.93
2023-03-19T00:34:59.036Z,6.94
2023-03-19T00:36:03.223Z,6.96
2023-03-19T00:37:07.488Z,6.97
2023-03-19T00:38:11.710Z,6.99
2023-03-19T00:39:15.946Z,7.00
2023-03-19T00:40:20.224Z,7.02
2023-03-19T00:41:24.430Z,7.03
2023-03-19T00:42:28.668Z,7.04
2023-03-19T00:43:32.852Z,7.06
2023-03-19T00:44:37.094Z,7.08
2023-03-19T00:45:41.392Z,7.09
2023-03-19T00:46:45.393Z,7.10
2023-03-19T00:47:49.551Z,7.11
2023-03-19T00:48:53.794Z,7.12
2023-03-19T00:49:57.997Z,7.13
2023-03-19T00:51:02.238Z,7.16
2023-03-19T00:52:06.530Z,7.18
2023-03-19T00:53:10.697Z,7.21
2023-03-19T00:54:14.920Z,7.24
2023-03-19T00:55:19.110Z,7.27
2023-03-19T00:56:23.361Z,7.32
2023-03-19T00:57:27.611Z,7.37
2023-03-19T00:58:31.938Z,7.41
2023-03-19T00:59:36.117Z,7.44
2023-03-19T01:00:40.368Z,7.46
2023-03-19T01:01:44.715Z,7.49
2023-03-19T01:02:48.791Z,7.51
2023-03-19T01:03:52.994Z,7.54
2023-03-19T01:04:57.212Z,7.57
2023-03-19T01:06:01.414Z,7.60
2023-03-19T01:07:05.750Z,7.64
2023-03-19T01:08:09.936Z,7.66
2023-03-19T01:09:14.229Z,7.69
2023-03-19T01:10:18.362Z,7.70
2023-03-19T01:11:22.671Z,7.71
2023-03-19T01:12:26.850Z,7.69
2023-03-19T01:13:31.035Z,7.68
2023-03-19T01:14:49.395Z,7.65
2023-03-19T01:15:52.379Z,7.60
2023-03-19T01:16:57.648Z,7.55
2023-03-19T01:18:00.774Z,7.51
2023-03-19T01:19:05.000Z,7.47
2023-03-19T01:20:09.370Z,7.44
2023-03-19T01:21:13.501Z,7.42
2023-03-19T01:22:17.823Z,7.41
2023-03-19T01:23:22.002Z,7.43
2023-03-19T01:24:26.281Z,7.45
2023-03-19T01:25:30.556Z,7.48
2023-03-19T01:26:34.766Z,7.50
2023-03-19T01:27:38.972Z,7.53
2023-03-19T01:28:43.239Z,7.56
2023-03-19T01:29:47.483Z,7.59
2023-03-19T01:30:51.723Z,7.62
2023-03-19T01:31:55.972Z,7.64
2023-03-19T01:33:00.191Z,7.67
2023-03-19T01:34:04.328Z,7.69
2023-03-19T01:35:08.531Z,7.71
2023-03-19T01:36:12.728Z,7.73
2023-03-19T01:37:16.948Z,7.74
2023-03-19T01:38:21.219Z,7.75
2023-03-19T01:39:25.538Z,7.76
2023-03-19T01:40:29.802Z,7.75
2023-03-19T01:41:34.001Z,7.74
2023-03-19T01:42:38.299Z,7.71
2023-03-19T01:43:42.540Z,7.67
2023-03-19T01:44:46.719Z,7.63
2023-03-19T01:45:51.495Z,7.60
2023-03-19T01:46:55.176Z,7.57
2023-03-19T01:47:59.410Z,7.56
2023-03-19T01:49:03.624Z,7.56
2023-03-19T01:50:07.875Z,7.56
2023-03-19T01:51:12.201Z,7.56
2023-03-19T01:52:16.340Z,7.56
2023-03-19T01:53:20.518Z,7.57
2023-03-19T01:54:24.780Z,7.58
2023-03-19T01:55:28.999Z,7.60
2023-03-19T01:56:33.207Z,7.62
2023-03-19T01:57:37.499Z,7.63
2023-03-19T01:58:41.664Z,7.65
2023-03-19T01:59:45.916Z,7.67
2023-03-19T02:00:50.141Z,7.69
2023-03-19T02:01:54.410Z,7.72
2023-03-19T02:02:58.538Z,7.74
2023-03-19T02:04:02.956Z,7.75
2023-03-19T02:05:07.107Z,7.76
2023-03-19T02:06:11.393Z,7.77
2023-03-19T02:07:15.683Z,7.78
2023-03-19T02:08:19.807Z,7.79
2023-03-19T02:09:38.048Z,7.80
2023-03-19T02:10:41.111Z,7.82
2023-03-19T02:11:45.281Z,7.84
2023-03-19T02:12:49.559Z,7.86
2023-03-19T02:13:53.594Z,7.87
2023-03-19T02:14:57.854Z,7.88
2023-03-19T02:16:02.110Z,7.88
2023-03-19T02:17:06.381Z,7.88
2023-03-19T02:18:10.494Z,7.88
2023-03-19T02:19:14.793Z,7.87
2023-03-19T02:20:18.963Z,7.86
2023-03-19T02:21:23.217Z,7.85
2023-03-19T02:22:27.390Z,7.84
2023-03-19T02:23:31.629Z,7.83
2023-03-19T02:24:35.976Z,7.82
2023-03-19T02:25:40.052Z,7.81
2023-03-19T02:26:44.313Z,7.80
2023-03-19T02:27:48.622Z,7.80
2023-03-19T02:28:52.842Z,7.80
2023-03-19T02:29:57.082Z,7.81
2023-03-19T02:31:01.418Z,7.83
2023-03-19T02:32:05.571Z,7.85
2023-03-19T02:33:09.968Z,7.86
2023-03-19T02:34:14.100Z,7.88
2023-03-19T02:35:18.336Z,7.90
2023-03-19T02:36:22.536Z,7.91
2023-03-19T02:37:26.774Z,7.92
2023-03-19T02:38:31.109Z,7.91
2023-03-19T02:39:35.282Z,7.90
2023-03-19T02:40:39.534Z,7.89
2023-03-19T02:41:43.739Z,7.88
2023-03-19T02:42:47.980Z,7.88
2023-03-19T02:43:52.197Z,7.87
2023-03-19T02:44:56.487Z,7.86
2023-03-19T02:46:00.774Z,7.83
2023-03-19T02:47:05.064Z,7.79
2023-03-19T02:48:09.227Z,7.74
2023-03-19T02:49:13.454Z,7.70
2023-03-19T02:50:17.540Z,7.66
2023-03-19T02:51:21.851Z,7.62
2023-03-19T02:52:26.106Z,7.60
2023-03-19T02:53:30.243Z,7.60
2023-03-19T02:54:34.551Z,7.59
2023-03-19T02:55:38.730Z,7.56
2023-03-19T02:56:43.078Z,7.55
2023-03-19T02:57:47.258Z,7.53
2023-03-19T02:58:51.538Z,7.52
2023-03-19T02:59:55.689Z,7.51
2023-03-19T03:01:00.052Z,7.50
2023-03-19T03:02:04.185Z,7.50
2023-03-19T03:03:08.415Z,7.51
2023-03-19T03:04:12.600Z,7.54
2023-03-19T03:05:16.818Z,7.56
2023-03-19T03:06:21.034Z,7.59
2023-03-19T03:07:25.228Z,7.60
2023-03-19T03:08:29.431Z,7.60
2023-03-19T03:09:33.633Z,7.60
2023-03-19T03:10:37.977Z,7.61
2023-03-19T03:11:42.227Z,7.62
2023-03-19T03:12:46.434Z,7.63
2023-03-19T03:13:50.636Z,7.66
2023-03-19T03:14:54.868Z,7.69
2023-03-19T03:15:59.220Z,7.74
2023-03-19T03:17:03.425Z,7.78
2023-03-19T03:18:07.606Z,7.83
2023-03-19T03:19:11.907Z,7.87
2023-03-19T03:20:16.180Z,7.91
2023-03-19T03:21:20.493Z,7.94
2023-03-19T03:22:24.768Z,7.96
2023-03-19T03:23:28.954Z,7.97
2023-03-19T03:24:33.182Z,7.97
2023-03-19T03:25:37.381Z,7.96
2023-03-19T03:26:41.624Z,7.96
2023-03-19T03:27:45.853Z,7.96
2023-03-19T03:28:50.062Z,7.96
2023-03-19T03:29:54.345Z,7.98
2023-03-19T03:30:58.641Z,7.99
2023-03-19T03:32:05.864Z,8.01
2023-03-19T03:33:09.272Z,8.03
2023-03-19T03:34:13.468Z,8.05
2023-03-19T03:35:17.614Z,8.07
2023-03-19T03:36:21.861Z,8.10
2023-03-19T03:37:26.089Z,8.11
2023-03-19T03:38:30.309Z,8.12
2023-03-19T03:39:34.476Z,8.12
2023-03-19T03:40:38.717Z,8.12
2023-03-19T03:41:42.972Z,8.11
2023-03-19T03:42:53.185Z,8.12
2023-03-19T03:43:56.031Z,8.11
2023-03-19T03:45:00.175Z,8.11
2023-03-19T03:46:04.449Z,8.12
2023-03-19T03:47:08.629Z,8.11
2023-03-19T03:48:26.856Z,8.11
2023-03-19T03:49:29.892Z,8.13
2023-03-19T03:50:34.418Z,8.14
2023-03-19T03:51:38.266Z,8.16
2023-03-19T03:52:42.510Z,8.18
2023-03-19T03:53:46.835Z,8.19
2023-03-19T03:54:50.986Z,8.22
2023-03-19T03:55:55.285Z,8.25
2023-03-19T03:57:01.460Z,8.27
2023-03-19T03:58:03.817Z,8.30
2023-03-19T03:59:07.980Z,8.33
2023-03-19T04:00:12.206Z,8.36
2023-03-19T04:01:16.477Z,8.39
2023-03-19T04:02:20.762Z,8.41
2023-03-19T04:03:24.988Z,8.44
2023-03-19T04:04:29.105Z,8.45
2023-03-19T04:05:33.479Z,8.47
2023-03-19T04:06:37.734Z,8.46
2023-03-19T04:07:41.900Z,8.45
2023-03-19T04:08:46.161Z,8.44
2023-03-19T04:09:50.394Z,8.41
2023-03-19T04:10:54.633Z,8.39
2023-03-19T04:11:58.944Z,8.38
2023-03-19T04:13:03.150Z,8.36
2023-03-19T04:14:07.369Z,8.35
2023-03-19T04:15:11.613Z,8.35
2023-03-19T04:16:15.936Z,8.36
2023-03-19T04:17:23.019Z,8.37
2023-03-19T04:18:26.343Z,8.38
2023-03-19T04:19:30.542Z,8.38
2023-03-19T04:20:35.136Z,8.40
2023-03-19T04:21:38.933Z,8.42
2023-03-19T04:22:43.161Z,8.44
2023-03-19T04:23:47.424Z,8.45
2023-03-19T04:24:51.683Z,8.46
2023-03-19T04:25:55.914Z,8.46
2023-03-19T04:27:00.230Z,8.44
2023-03-19T04:28:04.431Z,8.42
2023-03-19T04:29:08.703Z,8.41
2023-03-19T04:30:12.864Z,8.39
2023-03-19T04:31:17.241Z,8.39
2023-03-19T04:32:21.365Z,8.40
2023-03-19T04:33:25.607Z,8.42
2023-03-19T04:34:29.848Z,8.44
2023-03-19T04:35:34.101Z,8.46
2023-03-19T04:36:38.273Z,8.48
2023-03-19T04:37:42.530Z,8.51
2023-03-19T04:38:46.756Z,8.53
2023-03-19T04:39:50.994Z,8.54
2023-03-19T04:40:55.205Z,8.56
2023-03-19T04:41:59.482Z,8.58
2023-03-19T04:43:03.693Z,8.60
2023-03-19T04:44:10.919Z,8.62
2023-03-19T04:45:14.211Z,8.64
2023-03-19T04:46:18.574Z,8.63
2023-03-19T04:47:22.777Z,8.64
2023-03-19T04:48:26.933Z,8.63
2023-03-19T04:49:31.177Z,8.63
2023-03-19T04:50:35.758Z,8.61
2023-03-19T04:51:39.727Z,8.59
2023-03-19T04:52:43.893Z,8.58
2023-03-19T04:53:48.128Z,8.57
2023-03-19T04:54:52.388Z,8.57
2023-03-19T04:55:56.622Z,8.56
2023-03-19T04:57:01.025Z,8.56
2023-03-19T04:58:05.064Z,8.55
2023-03-19T04:59:09.354Z,8.55
2023-03-19T05:00:13.555Z,8.54
2023-03-19T05:01:17.858Z,8.54
2023-03-19T05:02:22.074Z,8.53
2023-03-19T05:03:29.324Z,8.54
2023-03-19T05:04:32.581Z,8.56
2023-03-19T05:05:36.824Z,8.55
2023-03-19T05:06:41.193Z,8.55
2023-03-19T05:07:45.286Z,8.56
2023-03-19T05:08:49.526Z,8.56
2023-03-19T05:09:53.763Z,8.56
2023-03-19T05:10:58.029Z,8.56
2023-03-19T05:12:02.271Z,8.56
2023-03-19T05:13:06.484Z,8.57
2023-03-19T05:14:10.722Z,8.59
2023-03-19T05:15:14.952Z,8.59
2023-03-19T05:16:19.242Z,8.59
2023-03-19T05:17:23.418Z,8.59
2023-03-19T05:18:27.622Z,8.59
2023-03-19T05:19:31.823Z,8.59
2023-03-19T05:20:36.288Z,8.59
2023-03-19T05:21:40.388Z,8.59
2023-03-19T05:22:44.578Z,8.59
2023-03-19T05:23:48.772Z,8.59
2023-03-19T05:24:52.992Z,8.59
2023-03-19T05:25:57.234Z,8.59
2023-03-19T05:27:01.466Z,8.60
2023-03-19T05:28:05.686Z,8.59
2023-03-19T05:29:09.952Z,8.58
2023-03-19T05:30:14.242Z,8.57
2023-03-19T05:31:18.554Z,8.55
2023-03-19T05:32:22.680Z,8.53
2023-03-19T05:33:26.946Z,8.50
2023-03-19T05:34:31.299Z,8.49
2023-03-19T05:35:35.459Z,8.46
2023-03-19T05:36:39.794Z,8.45
2023-03-19T05:37:44.041Z,8.44
2023-03-19T05:38:48.240Z,8.42
2023-03-19T05:39:52.490Z,8.41
2023-03-19T05:40:56.722Z,8.40
2023-03-19T05:42:00.953Z,8.39
2023-03-19T05:43:05.252Z,8.40
2023-03-19T05:44:09.464Z,8.39
2023-03-19T05:45:13.657Z,8.37
2023-03-19T05:46:17.954Z,8.36
2023-03-19T05:47:22.081Z,8.35
2023-03-19T05:48:26.355Z,8.34
2023-03-19T05:49:33.664Z,8.34
2023-03-19T05:50:36.945Z,8.33
2023-03-19T05:51:41.246Z,8.32
2023-03-19T05:52:45.418Z,8.31
2023-03-19T05:53:49.686Z,8.31
2023-03-19T05:54:53.913Z,8.31
2023-03-19T05:55:58.195Z,8.32
2023-03-19T05:57:03.479Z,8.32
2023-03-19T05:58:06.642Z,8.32
2023-03-19T05:59:10.993Z,8.32
2023-03-19T06:00:15.193Z,8.32
2023-03-19T06:01:19.544Z,8.31
2023-03-19T06:02:23.688Z,8.31
2023-03-19T06:03:27.914Z,8.30
2023-03-19T06:04:32.263Z,8.29
2023-03-19T06:05:36.434Z,8.28
2023-03-19T06:06:40.656Z,8.27
2023-03-19T06:07:44.898Z,8.27
2023-03-19T06:08:49.121Z,8.26
2023-03-19T06:09:53.413Z,8.26
2023-03-19T06:10:57.619Z,8.25
2023-03-19T06:12:01.959Z,8.25
2023-03-19T06:13:06.104Z,8.23
2023-03-19T06:14:16.357Z,8.22
2023-03-19T06:15:19.183Z,8.21
2023-03-19T06:16:23.522Z,8.20
2023-03-19T06:17:27.651Z,8.19
2023-03-19T06:18:31.916Z,8.18
2023-03-19T06:19:36.142Z,8.16
2023-03-19T06:20:40.439Z,8.15
2023-03-19T06:21:44.590Z,8.14
2023-03-19T06:22:48.827Z,8.12
2023-03-19T06:23:53.062Z,8.11
2023-03-19T06:24:57.304Z,8.09
2023-03-19T06:26:01.625Z,8.07
2023-03-19T06:27:05.800Z,8.05
2023-03-19T06:28:24.104Z,8.04
2023-03-19T06:29:27.430Z,8.04
2023-03-19T06:30:31.763Z,8.04
2023-03-19T06:31:35.946Z,8.04
2023-03-19T06:32:40.207Z,8.04
2023-03-19T06:33:44.306Z,8.03
2023-03-19T06:34:48.539Z,8.03
2023-03-19T06:35:52.805Z,8.02
2023-03-19T06:36:56.989Z,8.02
2023-03-19T06:38:01.196Z,8.02
2023-03-19T06:39:05.419Z,8.02
2023-03-19T06:40:09.631Z,8.03
2023-03-19T06:41:13.878Z,8.04
2023-03-19T06:42:18.046Z,8.05
2023-03-19T06:43:22.240Z,8.05
2023-03-19T06:44:26.458Z,8.06
2023-03-19T06:45:30.795Z,8.07
2023-03-19T06:46:35.024Z,8.08
2023-03-19T06:47:39.409Z,8.10
2023-03-19T06:48:43.566Z,8.12
2023-03-19T06:49:47.801Z,8.14
2023-03-19T06:50:52.015Z,8.16
2023-03-19T06:51:56.323Z,8.19
2023-03-19T06:53:01.535Z,8.21
2023-03-19T06:54:05.372Z,8.23
2023-03-19T06:55:09.594Z,8.26
2023-03-19T06:56:13.811Z,8.28
2023-03-19T06:57:18.054Z,8.29
2023-03-19T06:58:22.266Z,8.30
2023-03-19T06:59:26.467Z,8.31
2023-03-19T07:00:44.798Z,8.32
2023-03-19T07:01:47.860Z,8.35
2023-03-19T07:02:52.049Z,8.38
2023-03-19T07:03:56.302Z,8.40
2023-03-19T07:05:00.490Z,8.42
2023-03-19T07:06:04.698Z,8.44
2023-03-19T07:07:09.018Z,8.47
2023-03-19T07:08:13.193Z,8.50
2023-03-19T07:09:17.543Z,8.53
2023-03-19T07:10:21.765Z,8.57
2023-03-19T07:11:26.043Z,8.60
2023-03-19T07:12:30.248Z,8.64
2023-03-19T07:13:34.580Z,8.66
2023-03-19T07:14:38.783Z,8.71
2023-03-19T07:15:42.999Z,8.75
2023-03-19T07:16:47.347Z,8.79
2023-03-19T07:17:51.532Z,8.82
2023-03-19T07:18:55.854Z,8.86
2023-03-19T07:20:00.102Z,8.89
2023-03-19T07:21:04.305Z,8.92
2023-03-19T07:22:11.636Z,8.95
2023-03-19T07:23:14.898Z,8.99
2023-03-19T07:24:19.113Z,9.03
2023-03-19T07:25:23.486Z,9.07
2023-03-19T07:26:27.747Z,9.13
2023-03-19T07:27:31.934Z,9.18
2023-03-19T07:28:36.305Z,9.24
2023-03-19T07:29:40.411Z,9.28
2023-03-19T07:30:44.721Z,9.32
2023-03-19T07:31:48.983Z,9.35
2023-03-19T07:32:53.376Z,9.39
2023-03-19T07:33:57.530Z,9.42
2023-03-19T07:35:01.799Z,9.46
2023-03-19T07:36:06.024Z,9.51
2023-03-19T07:37:10.292Z,9.55
2023-03-19T07:38:14.626Z,9.58
2023-03-19T07:39:18.817Z,9.62
2023-03-19T07:40:23.147Z,9.66
2023-03-19T07:41:27.485Z,9.68
2023-03-19T07:42:31.724Z,9.71
2023-03-19T07:43:35.988Z,9.73
2023-03-19T07:44:40.362Z,9.76
2023-03-19T07:45:44.568Z,9.78
2023-03-19T07:46:48.904Z,9.80
2023-03-19T07:47:53.178Z,9.82
2023-03-19T07:48:57.426Z,9.84
2023-03-19T07:50:01.823Z,9.86
2023-03-19T07:51:06.024Z,9.88
2023-03-19T07:52:10.255Z,9.91
2023-03-19T07:53:14.494Z,9.94
2023-03-19T07:54:18.691Z,9.97
2023-03-19T07:55:22.947Z,10.00
2023-03-19T07:56:27.185Z,10.02
2023-03-19T07:57:31.472Z,10.04
2023-03-19T07:58:35.783Z,10.07
2023-03-19T07:59:39.958Z,10.09
2023-03-19T08:00:44.215Z,10.11
2023-03-19T08:01:48.422Z,10.15
2023-03-19T08:02:52.701Z,10.19
2023-03-19T08:03:56.909Z,10.23
2023-03-19T08:05:01.169Z,10.28
2023-03-19T08:06:05.573Z,10.33
2023-03-19T08:07:09.722Z,10.39
2023-03-19T08:08:14.091Z,10.44
2023-03-19T08:09:18.369Z,10.50
2023-03-19T08:10:22.720Z,10.57
2023-03-19T08:11:26.933Z,10.65
2023-03-19T08:12:31.273Z,10.70
2023-03-19T08:13:35.519Z,10.74
2023-03-19T08:14:39.782Z,10.78
2023-03-19T08:15:43.992Z,10.82
2023-03-19T08:16:48.426Z,10.87
2023-03-19T08:17:52.607Z,10.93
2023-03-19T08:18:56.906Z,10.99
2023-03-19T08:20:01.135Z,11.04
2023-03-19T08:21:05.413Z,11.08
2023-03-19T08:22:09.685Z,11.13
2023-03-19T08:23:14.048Z,11.16
2023-03-19T08:24:18.242Z,11.22
2023-03-19T08:25:22.532Z,11.28
2023-03-19T08:26:26.817Z,11.32
2023-03-19T08:27:31.085Z,11.36
2023-03-19T08:28:35.353Z,11.41
2023-03-19T08:29:39.636Z,11.46
2023-03-19T08:30:43.932Z,11.51
2023-03-19T08:31:48.135Z,11.55
2023-03-19T08:32:52.474Z,11.59
2023-03-19T08:33:56.753Z,11.63
2023-03-19T08:35:01.032Z,11.66
2023-03-19T08:36:05.272Z,11.71
2023-03-19T08:37:09.482Z,11.74
2023-03-19T08:38:13.754Z,11.76
2023-03-19T08:39:18.011Z,11.77
2023-03-19T08:40:22.259Z,11.79
2023-03-19T08:41:26.568Z,11.81
2023-03-19T08:42:30.848Z,11.83
2023-03-19T08:43:35.114Z,11.85
2023-03-19T08:44:39.349Z,11.87
2023-03-19T08:45:46.710Z,11.90
2023-03-19T08:46:50.052Z,11.93
2023-03-19T08:47:54.296Z,11.96
2023-03-19T08:48:58.592Z,11.99
2023-03-19T08:50:02.840Z,12.03
2023-03-19T08:51:07.063Z,12.07
2023-03-19T08:52:11.303Z,12.10
2023-03-19T08:53:15.684Z,12.15
2023-03-19T08:54:22.571Z,12.19
2023-03-19T08:55:24.194Z,12.23
2023-03-19T08:56:28.441Z,12.26
2023-03-19T08:57:32.704Z,12.29
2023-03-19T08:58:36.978Z,12.33
2023-03-19T08:59:41.250Z,12.36
2023-03-19T09:00:45.501Z,12.39
2023-03-19T09:01:49.867Z,12.42
2023-03-19T09:02:54.068Z,12.46
2023-03-19T09:03:58.403Z,12.48
2023-03-19T09:05:02.676Z,12.53
2023-03-19T09:06:06.957Z,12.56
2023-03-19T09:07:11.228Z,12.59
2023-03-19T09:08:15.585Z,12.63
2023-03-19T09:09:19.827Z,12.66
2023-03-19T09:10:24.117Z,12.70
2023-03-19T09:11:28.415Z,12.73
2023-03-19T09:12:32.645Z,12.78
2023-03-19T09:13:36.945Z,12.82
2023-03-19T09:14:41.184Z,12.86
2023-03-19T09:15:45.489Z,12.91
2023-03-19T09:16:49.828Z,12.95
2023-03-19T09:17:54.193Z,12.99
2023-03-19T09:18:59.468Z,13.03
2023-03-19T09:20:02.695Z,13.07
2023-03-19T09:21:07.047Z,13.11
2023-03-19T09:22:11.268Z,13.14
2023-03-19T09:23:15.561Z,13.19
2023-03-19T09:24:19.894Z,13.22
2023-03-19T09:25:24.174Z,13.26
2023-03-19T09:26:28.535Z,13.29
2023-03-19T09:27:32.871Z,13.32
2023-03-19T09:28:37.189Z,13.34
2023-03-19T09:29:41.458Z,13.36
2023-03-19T09:30:45.833Z,13.38
2023-03-19T09:31:50.285Z,13.42
2023-03-19T09:32:54.519Z,13.43
2023-03-19T09:33:58.708Z,13.45
2023-03-19T09:35:03.096Z,13.46
2023-03-19T09:36:07.361Z,13.48
2023-03-19T09:37:11.672Z,13.50
2023-03-19T09:38:15.959Z,13.52
2023-03-19T09:39:23.295Z,13.54
2023-03-19T09:40:26.708Z,13.56
2023-03-19T09:41:30.918Z,13.59
2023-03-19T09:42:35.316Z,13.63
2023-03-19T09:43:53.625Z,13.66
2023-03-19T09:44:56.839Z,13.70
2023-03-19T09:46:01.216Z,13.75
2023-03-19T09:47:05.466Z,13.81
2023-03-19T09:48:09.793Z,13.85
2023-03-19T09:49:14.052Z,13.89
2023-03-19T09:50:18.435Z,13.94
2023-03-19T09:51:22.776Z,13.98
2023-03-19T09:52:27.173Z,14.03
2023-03-19T09:53:31.411Z,14.08
2023-03-19T09:54:36.675Z,14.13
2023-03-19T09:55:40.596Z,14.16
2023-03-19T09:56:44.900Z,14.19
2023-03-19T09:57:49.326Z,14.23
2023-03-19T09:58:53.590Z,14.27
2023-03-19T09:59:57.857Z,14.31
2023-03-19T10:01:02.148Z,14.34
2023-03-19T10:02:06.657Z,14.36
2023-03-19T10:03:10.880Z,14.39
2023-03-19T10:04:15.311Z,14.41
2023-03-19T10:05:19.454Z,14.44
2023-03-19T10:06:23.774Z,14.46
2023-03-19T10:07:28.056Z,14.48
2023-03-19T10:08:38.495Z,14.50
2023-03-19T10:09:41.477Z,14.52
2023-03-19T10:10:45.705Z,14.53
2023-03-19T10:11:49.955Z,14.54
2023-03-19T10:12:54.342Z,14.57
2023-03-19T10:13:58.605Z,14.59
2023-03-19T10:15:03.016Z,14.60
2023-03-19T10:16:07.281Z,14.62
2023-03-19T10:17:11.588Z,14.63
2023-03-19T10:18:16.022Z,14.64
2023-03-19T10:19:22.102Z,14.65
2023-03-19T10:20:24.530Z,14.66
2023-03-19T10:21:28.864Z,14.68
2023-03-19T10:22:33.222Z,14.70
2023-03-19T10:23:37.560Z,14.71
2023-03-19T10:24:55.889Z,14.72
2023-03-19T10:25:59.280Z,14.74
2023-03-19T10:27:17.505Z,14.76
2023-03-19T10:28:20.834Z,14.79
2023-03-19T10:29:28.059Z,14.82
2023-03-19T10:30:31.503Z,14.85
2023-03-19T10:31:35.824Z,14.88
2023-03-19T10:32:40.183Z,14.91
2023-03-19T10:33:44.446Z,14.94
2023-03-19T10:34:48.813Z,14.97
2023-03-19T10:35:53.154Z,15.01
2023-03-19T10:37:00.487Z,15.04
2023-03-19T10:38:03.923Z,15.08
2023-03-19T10:39:08.217Z,15.11
2023-03-19T10:40:12.610Z,15.15
2023-03-19T10:41:16.994Z,15.18
2023-03-19T10:42:21.295Z,15.21
2023-03-19T10:43:25.536Z,15.22
2023-03-19T10:44:29.847Z,15.25
2023-03-19T10:45:34.730Z,15.27
2023-03-19T10:46:38.446Z,15.29
2023-03-19T10:47:42.839Z,15.30
2023-03-19T10:48:47.210Z,15.33
2023-03-19T10:49:51.488Z,15.36
2023-03-19T10:50:55.877Z,15.38
2023-03-19T10:52:00.116Z,15.40
2023-03-19T10:53:04.403Z,15.41
2023-03-19T10:54:08.701Z,15.44
2023-03-19T10:55:13.014Z,15.46
2023-03-19T10:56:17.437Z,15.48
2023-03-19T10:57:21.629Z,15.50
2023-03-19T10:58:25.954Z,15.53
2023-03-19T10:59:30.368Z,15.55
2023-03-19T11:00:48.850Z,15.57
2023-03-19T11:01:52.139Z,15.62
2023-03-19T11:02:56.463Z,15.64
2023-03-19T11:04:00.863Z,15.67
2023-03-19T11:05:05.063Z,15.70
2023-03-19T11:06:09.478Z,15.73
2023-03-19T11:07:13.728Z,15.75
2023-03-19T11:08:34.638Z,15.78
2023-03-19T11:09:22.486Z,15.80
2023-03-19T11:10:26.751Z,15.82
2023-03-19T11:11:31.247Z,15.85
2023-03-19T11:12:35.619Z,15.89
2023-03-19T11:13:39.882Z,15.92
2023-03-19T11:14:44.328Z,15.95
2023-03-19T11:15:48.585Z,15.99
2023-03-19T11:16:53.057Z,16.02
2023-03-19T11:17:57.496Z,16.05
2023-03-19T11:19:01.761Z,16.08
2023-03-19T11:20:06.159Z,16.13
2023-03-19T11:21:10.412Z,16.17
2023-03-19T11:22:14.731Z,16.20
2023-03-19T11:23:19.153Z,16.26
2023-03-19T11:24:23.554Z,16.31
2023-03-19T11:25:27.911Z,16.37
2023-03-19T11:26:32.189Z,16.43
2023-03-19T11:27:36.642Z,16.48
2023-03-19T11:28:40.998Z,16.54
2023-03-19T11:29:45.283Z,16.58
2023-03-19T11:30:49.598Z,16.62
2023-03-19T11:31:54.065Z,16.65
2023-03-19T11:33:12.545Z,16.68
2023-03-19T11:34:15.668Z,16.69
2023-03-19T11:35:19.991Z,16.72
2023-03-19T11:36:24.249Z,16.74
2023-03-19T11:37:28.641Z,16.76
2023-03-19T11:38:32.861Z,16.79
2023-03-19T11:41:04.261Z,16.85
2023-03-19T11:42:08.537Z,16.90
2023-03-19T11:43:12.850Z,16.95
2023-03-19T11:44:17.233Z,17.00
2023-03-19T11:45:24.635Z,17.04
2023-03-19T11:46:28.132Z,17.09
2023-03-19T11:47:32.453Z,17.14
2023-03-19T11:48:36.834Z,17.19
2023-03-19T11:49:41.228Z,17.25
2023-03-19T11:50:47.140Z,17.30
2023-03-19T11:51:49.821Z,17.35
2023-03-19T11:52:54.223Z,17.41
2023-03-19T11:53:58.609Z,17.46
2023-03-19T11:55:02.971Z,17.53
2023-03-19T11:56:07.324Z,17.60
2023-03-19T11:57:14.643Z,17.68
2023-03-19T11:58:18.083Z,17.75
2023-03-19T11:59:22.518Z,17.81
2023-03-19T12:00:26.887Z,17.88
2023-03-19T12:01:31.176Z,17.95
2023-03-19T12:02:35.642Z,18.01
2023-03-19T12:03:39.912Z,18.08
2023-03-19T12:04:44.319Z,18.14
2023-03-19T12:05:48.754Z,18.22
2023-03-19T12:06:53.035Z,18.28
2023-03-19T12:07:57.485Z,18.32
2023-03-19T12:09:01.760Z,18.37
2023-03-19T12:10:06.090Z,18.41
2023-03-19T12:11:10.505Z,18.46
2023-03-19T12:12:14.919Z,18.52
2023-03-19T12:13:19.359Z,18.56
2023-03-19T12:14:23.625Z,18.62
2023-03-19T12:15:27.969Z,18.66
2023-03-19T12:16:32.317Z,18.69
2023-03-19T12:17:36.776Z,18.73
2023-03-19T12:18:41.089Z,18.77
2023-03-19T12:19:45.490Z,18.81
2023-03-19T12:20:49.804Z,18.87
2023-03-19T12:21:54.340Z,18.92
2023-03-19T12:22:58.490Z,18.98
2023-03-19T12:24:02.938Z,19.05
2023-03-19T12:25:07.326Z,19.14
2023-03-19T12:26:11.774Z,19.22
2023-03-19T12:27:16.081Z,19.29
2023-03-19T12:28:20.546Z,19.36
2023-03-19T12:29:24.899Z,19.42
2023-03-19T12:30:29.265Z,19.48
2023-03-19T12:31:33.786Z,19.52
2023-03-19T12:32:38.177Z,19.56
2023-03-19T12:33:42.604Z,19.64
2023-03-19T12:34:47.882Z,19.71
2023-03-19T12:35:51.975Z,19.78
2023-03-19T12:36:56.398Z,19.83
2023-03-19T12:38:00.803Z,19.88
2023-03-19T12:39:05.114Z,19.89
2023-03-19T12:40:09.437Z,19.86
2023-03-19T12:41:19.918Z,19.89
2023-03-19T12:42:22.890Z,19.94
2023-03-19T12:43:30.220Z,19.99
2023-03-19T12:44:33.702Z,19.96
2023-03-19T12:45:37.989Z,19.88
2023-03-19T12:46:42.434Z,19.79
2023-03-19T12:47:46.837Z,19.76
2023-03-19T12:48:51.258Z,19.73
2023-03-19T12:49:55.516Z,19.72
2023-03-19T12:50:59.863Z,19.67
2023-03-19T12:52:04.252Z,19.57
2023-03-19T12:53:08.726Z,19.47
2023-03-19T12:54:19.046Z,19.41
2023-03-19T12:55:22.041Z,19.40
2023-03-19T12:56:40.524Z,19.48
2023-03-19T12:57:44.023Z,19.61
2023-03-19T12:58:48.372Z,19.72
2023-03-19T12:59:52.744Z,19.74
2023-03-19T13:00:57.013Z,19.71
2023-03-19T13:02:01.595Z,19.72
2023-03-19T13:03:05.846Z,19.78
2023-03-19T13:04:10.262Z,19.89
2023-03-19T13:05:14.634Z,20.01
2023-03-19T13:06:19.092Z,20.14
2023-03-19T13:07:23.436Z,20.25
2023-03-19T13:08:27.813Z,20.29
2023-03-19T13:09:32.251Z,20.26
2023-03-19T13:10:36.876Z,20.25
2023-03-19T13:11:41.054Z,20.27
2023-03-19T13:12:45.477Z,20.29
2023-03-19T13:13:49.860Z,20.33
2023-03-19T13:14:54.325Z,20.36
2023-03-19T13:15:58.827Z,20.39
2023-03-19T13:17:03.068Z,20.39
2023-03-19T13:18:07.444Z,20.41
2023-03-19T13:19:11.805Z,20.43
2023-03-19T13:20:16.163Z,20.48
2023-03-19T13:21:20.582Z,20.51
2023-03-19T13:22:25.014Z,20.51
2023-03-19T13:23:29.336Z,20.45
2023-03-19T13:24:33.691Z,20.42
2023-03-19T13:25:38.233Z,20.42
2023-03-19T13:26:42.435Z,20.44
2023-03-19T13:27:46.857Z,20.48
2023-03-19T13:28:51.309Z,20.53
2023-03-19T13:29:55.728Z,20.56
2023-03-19T13:31:00.232Z,20.59
2023-03-19T13:32:04.562Z,20.59
2023-03-19T13:33:09.089Z,20.59
2023-03-19T13:34:27.455Z,20.61
2023-03-19T13:35:30.844Z,20.58
2023-03-19T13:36:35.143Z,20.49
2023-03-19T13:37:42.536Z,20.37
2023-03-19T13:38:46.110Z,20.24
2023-03-19T13:39:50.510Z,20.15
2023-03-19T13:40:54.795Z,20.10
2023-03-19T13:41:59.205Z,20.10
2023-03-19T13:43:03.624Z,20.13
2023-03-19T13:44:07.924Z,20.14
2023-03-19T13:45:12.346Z,20.10
2023-03-19T13:46:16.847Z,20.09
2023-03-19T13:47:21.102Z,20.11
2023-03-19T13:48:28.583Z,20.16
2023-03-19T13:49:32.092Z,20.21
2023-03-19T13:50:37.057Z,20.23
2023-03-19T13:51:40.854Z,20.20
2023-03-19T13:52:45.212Z,20.14
2023-03-19T13:53:49.669Z,20.05
2023-03-19T13:54:53.990Z,19.95
2023-03-19T13:57:25.548Z,19.68
2023-03-19T13:58:29.761Z,19.59
2023-03-19T13:59:48.198Z,19.53
2023-03-19T14:00:51.508Z,19.47
2023-03-19T14:01:55.839Z,19.42
2023-03-19T14:03:00.166Z,19.38
2023-03-19T14:04:04.519Z,19.36
2023-03-19T14:05:08.827Z,19.35
2023-03-19T14:06:13.352Z,19.33
2023-03-19T14:07:17.738Z,19.30
2023-03-19T14:08:21.967Z,19.29
2023-03-19T14:09:26.457Z,19.26